Time;durP1;ratioP1;P1;durP2;ratioP2;P2;SDS_P1;SDS_P2;PMS_P1;PMS_P2;Temp;Humidity;BMP_temperature;BMP_pressure;BME280_temperature;BME280_humidity;BME280_pressure;Samples;Min_cycle;Max_cycle;Signal;HPM_P1;HPM_P2
2023/08/02 00:00:23;;;;;;;9.27;2.15;;;16.90;99.90;;;;;;5053155;28;20078;-53
2023/08/02 00:02:48;;;;;;;10.80;2.70;;;16.90;99.90;;;;;;5052836;28;20040;-45
2023/08/02 00:05:14;;;;;;;10.10;2.20;;;16.90;99.90;;;;;;5047247;28;20033;-44
2023/08/02 00:07:40;;;;;;;4.97;2.20;;;16.90;99.90;;;;;;5032976;28;20033;-39
2023/08/02 00:10:06;;;;;;;7.65;1.88;;;16.90;99.90;;;;;;5033390;28;20386;-42
2023/08/02 00:12:31;;;;;;;9.05;2.00;;;16.90;99.90;;;;;;5033002;28;20104;-39
2023/08/02 00:14:57;;;;;;;7.97;2.75;;;16.90;99.90;;;;;;5049622;28;20122;-42
2023/08/02 00:17:23;;;;;;;6.93;2.40;;;16.90;99.90;;;;;;5052934;28;20455;-40
2023/08/02 00:19:48;;;;;;;12.35;2.55;;;16.90;99.90;;;;;;5053114;28;20474;-40
2023/08/02 00:22:14;;;;;;;7.03;2.22;;;16.90;99.90;;;;;;5051557;28;20037;-42
2023/08/02 00:24:40;;;;;;;10.18;2.30;;;16.90;99.90;;;;;;5052764;28;20032;-41
2023/08/02 00:27:05;;;;;;;7.15;1.73;;;16.90;99.90;;;;;;5052934;28;21361;-40
2023/08/02 00:29:31;;;;;;;7.65;2.15;;;16.80;99.90;;;;;;5051247;28;20486;-40
2023/08/02 00:31:56;;;;;;;9.98;2.60;;;16.80;99.90;;;;;;5052655;28;20021;-42
2023/08/02 00:34:22;;;;;;;11.77;3.30;;;16.90;99.90;;;;;;5052681;28;20017;-40
2023/08/02 00:36:48;;;;;;;8.85;2.83;;;16.90;99.90;;;;;;5052660;28;20473;-40
2023/08/02 00:39:13;;;;;;;9.50;2.42;;;16.90;99.90;;;;;;5051714;28;20013;-42
2023/08/02 00:41:39;;;;;;;12.98;3.05;;;16.90;99.90;;;;;;5052951;28;20048;-39
2023/08/02 00:44:05;;;;;;;10.50;2.60;;;16.90;99.90;;;;;;5052881;28;20028;-42
2023/08/02 00:46:30;;;;;;;8.40;2.80;;;16.90;99.90;;;;;;5052586;28;20482;-41
2023/08/02 00:48:56;;;;;;;5.55;1.90;;;16.80;99.90;;;;;;5052846;28;20021;-42
2023/08/02 00:51:22;;;;;;;9.20;1.80;;;16.80;99.90;;;;;;5040050;28;20148;-42
2023/08/02 00:53:47;;;;;;;9.43;2.25;;;16.80;99.90;;;;;;5032404;28;20042;-40
2023/08/02 00:56:17;;;;;;;6.28;2.10;;;16.80;99.90;;;;;;5053286;28;20021;-40
2023/08/02 00:58:43;;;;;;;10.85;2.03;;;16.90;99.90;;;;;;5051330;28;20543;-40
2023/08/02 01:01:09;;;;;;;5.88;2.42;;;16.90;99.90;;;;;;5052711;28;20473;-41
2023/08/02 01:03:40;;;;;;;10.30;2.63;;;16.90;99.90;;;;;;5051983;28;20017;-43
2023/08/02 01:06:23;;;;;;;10.50;2.75;;;16.90;99.90;;;;;;5051729;28;20123;-54
2023/08/02 01:08:57;;;;;;;5.50;2.28;;;16.80;99.90;;;;;;5052432;28;20496;-52
2023/08/02 01:11:26;;;;;;;13.73;3.08;;;16.80;99.90;;;;;;5052324;28;20074;-54
2023/08/02 01:13:55;;;;;;;6.50;1.92;;;16.90;99.90;;;;;;5051506;28;20021;-54
2023/08/02 01:16:23;;;;;;;11.38;3.40;;;16.90;99.90;;;;;;5052319;28;20017;-54
2023/08/02 01:18:50;;;;;;;5.30;2.70;;;16.80;99.90;;;;;;5052586;28;20021;-53
2023/08/02 01:21:15;;;;;;;5.38;2.05;;;16.80;99.90;;;;;;5052240;28;20481;-55
2023/08/02 01:23:42;;;;;;;7.63;2.83;;;16.90;99.90;;;;;;5052200;28;20021;-54
2023/08/02 01:26:08;;;;;;;9.43;2.78;;;16.90;99.90;;;;;;5053307;28;20497;-55
2023/08/02 01:28:39;;;;;;;10.45;2.63;;;16.80;99.90;;;;;;5055951;28;20029;-52
2023/08/02 01:31:06;;;;;;;5.72;2.22;;;16.80;99.90;;;;;;5054969;28;20025;-43
2023/08/02 01:33:39;;;;;;;8.15;3.72;;;16.80;99.90;;;;;;5056145;28;20055;-40
2023/08/02 01:36:05;;;;;;;9.52;2.42;;;16.80;99.90;;;;;;5055891;28;20428;-42
2023/08/02 01:38:31;;;;;;;6.68;2.65;;;16.70;99.90;;;;;;5054883;28;20070;-41
2023/08/02 01:40:56;;;;;;;15.88;3.03;;;16.80;99.90;;;;;;5054787;28;20029;-42
2023/08/02 01:43:22;;;;;;;5.13;2.60;;;16.70;99.90;;;;;;5055684;28;20450;-52
2023/08/02 01:45:47;;;;;;;7.97;2.50;;;16.70;99.90;;;;;;5055660;28;20036;-54
2023/08/02 01:48:13;;;;;;;8.85;2.83;;;16.70;99.90;;;;;;5053634;28;20049;-52
2023/08/02 01:50:39;;;;;;;6.28;2.42;;;16.60;99.90;;;;;;5055436;28;20029;-55
2023/08/02 01:53:04;;;;;;;10.48;3.25;;;16.60;99.90;;;;;;5055312;28;20512;-54
2023/08/02 01:55:30;;;;;;;5.10;2.92;;;16.50;99.90;;;;;;5055512;28;20022;-54
2023/08/02 01:57:55;;;;;;;4.55;2.65;;;16.50;99.90;;;;;;5055454;28;20100;-55
2023/08/02 02:00:21;;;;;;;7.25;2.90;;;16.50;99.90;;;;;;5055412;28;20474;-53
2023/08/02 02:02:47;;;;;;;6.65;2.78;;;16.50;99.90;;;;;;5055281;28;20397;-54
2023/08/02 02:05:12;;;;;;;11.73;2.95;;;16.50;99.90;;;;;;5054352;28;20047;-53
2023/08/02 02:07:38;;;;;;;5.53;2.78;;;16.50;99.90;;;;;;5055587;28;20025;-50
2023/08/02 02:10:04;;;;;;;6.57;2.70;;;16.50;99.90;;;;;;5055520;28;20029;-52
2023/08/02 02:12:30;;;;;;;9.88;3.00;;;16.50;99.90;;;;;;5055104;28;20013;-54
2023/08/02 02:14:55;;;;;;;13.48;2.95;;;16.50;99.90;;;;;;5055290;28;20013;-53
2023/08/02 02:17:21;;;;;;;6.72;2.35;;;16.50;99.90;;;;;;5055399;28;20075;-54
2023/08/02 02:19:47;;;;;;;7.38;2.78;;;16.50;99.90;;;;;;5055091;28;20025;-54
2023/08/02 02:22:12;;;;;;;9.55;3.28;;;16.50;99.90;;;;;;5054022;28;20507;-39
2023/08/02 02:24:38;;;;;;;7.40;3.58;;;16.50;99.90;;;;;;5055139;28;20021;-40
2023/08/02 02:27:04;;;;;;;6.93;2.65;;;16.50;99.90;;;;;;5058962;28;20035;-42
2023/08/02 02:29:30;;;;;;;10.20;2.90;;;16.40;99.90;;;;;;5074042;28;20548;-38
2023/08/02 02:31:55;;;;;;;14.77;3.90;;;16.40;99.90;;;;;;5051544;28;20100;-38
2023/08/02 02:34:21;;;;;;;4.78;2.75;;;16.40;99.90;;;;;;5049756;28;20032;-40
2023/08/02 02:36:47;;;;;;;9.95;2.30;;;16.40;99.90;;;;;;5052934;28;20021;-39
2023/08/02 02:39:13;;;;;;;7.65;2.45;;;16.40;99.90;;;;;;5047543;28;20044;-39
2023/08/02 02:41:39;;;;;;;9.43;2.63;;;16.40;99.90;;;;;;5054698;28;20021;-41
2023/08/02 02:44:04;;;;;;;5.40;2.10;;;16.40;99.90;;;;;;5054564;28;20025;-39
2023/08/02 02:46:30;;;;;;;5.72;2.15;;;16.40;99.90;;;;;;5054705;28;20028;-39
2023/08/02 02:48:55;;;;;;;8.57;2.60;;;16.40;99.90;;;;;;5070463;28;20048;-42
2023/08/02 02:51:21;;;;;;;7.30;2.47;;;16.40;99.90;;;;;;5074440;28;20041;-41
2023/08/02 02:53:47;;;;;;;5.85;1.85;;;16.40;99.90;;;;;;5074287;28;20433;-42
2023/08/02 02:56:12;;;;;;;2.95;2.33;;;16.40;99.90;;;;;;5074388;28;20021;-40
2023/08/02 02:58:38;;;;;;;6.22;2.97;;;16.40;99.90;;;;;;5072548;28;20024;-39
2023/08/02 03:01:03;;;;;;;8.57;2.80;;;16.40;99.90;;;;;;5067564;28;20036;-40
2023/08/02 03:03:30;;;;;;;8.00;2.90;;;16.40;99.90;;;;;;5074307;28;20505;-39
2023/08/02 03:05:55;;;;;;;8.70;2.47;;;16.40;99.90;;;;;;5074453;28;20028;-39
2023/08/02 03:08:21;;;;;;;6.70;2.33;;;16.40;99.90;;;;;;5066780;28;20614;-40
2023/08/02 03:10:47;;;;;;;8.10;2.58;;;16.40;99.90;;;;;;5071168;28;20020;-40
2023/08/02 03:13:12;;;;;;;3.72;2.17;;;16.30;99.90;;;;;;5070802;28;20496;-41
2023/08/02 03:15:38;;;;;;;11.70;2.80;;;16.40;99.90;;;;;;5056056;28;20029;-54
2023/08/02 03:18:03;;;;;;;7.45;2.60;;;16.30;99.90;;;;;;5071863;28;20512;-54
2023/08/02 03:20:29;;;;;;;9.43;3.10;;;16.30;99.90;;;;;;5067466;28;20492;-54
2023/08/02 03:22:55;;;;;;;4.82;1.95;;;16.30;99.90;;;;;;5073834;28;20433;-53
2023/08/02 03:25:20;;;;;;;8.80;2.17;;;16.30;99.90;;;;;;5068933;28;20028;-53
2023/08/02 03:27:46;;;;;;;5.45;2.10;;;16.40;99.90;;;;;;5069060;28;20527;-54
2023/08/02 03:30:11;;;;;;;6.10;2.45;;;16.40;99.90;;;;;;5070507;28;20374;-41
2023/08/02 03:32:37;;;;;;;10.15;3.42;;;16.30;99.90;;;;;;5069010;28;20038;-40
2023/08/02 03:35:03;;;;;;;8.90;2.80;;;16.30;99.90;;;;;;5073586;28;20024;-40
2023/08/02 03:37:29;;;;;;;11.40;2.88;;;16.30;99.90;;;;;;5073803;28;20103;-41
2023/08/02 03:39:55;;;;;;;8.63;3.05;;;16.30;99.90;;;;;;5069858;28;20471;-41
2023/08/02 03:42:20;;;;;;;6.03;2.55;;;16.30;99.90;;;;;;5073446;28;20029;-39
2023/08/02 03:44:46;;;;;;;7.55;2.53;;;16.20;99.90;;;;;;5073670;28;20511;-40
2023/08/02 03:47:11;;;;;;;11.95;2.33;;;16.30;99.90;;;;;;5068718;28;20082;-40
2023/08/02 03:49:40;;;;;;;12.23;3.75;;;16.30;99.90;;;;;;5073206;28;20028;-43
2023/08/02 03:52:05;;;;;;;9.65;2.58;;;16.30;99.90;;;;;;5073197;28;20473;-39
2023/08/02 03:54:31;;;;;;;4.90;2.42;;;16.30;99.90;;;;;;5071337;28;20066;-42
2023/08/02 03:56:57;;;;;;;6.97;2.45;;;16.30;99.90;;;;;;5073506;28;20441;-39
2023/08/02 03:59:22;;;;;;;5.70;2.47;;;16.30;99.90;;;;;;5073200;28;20017;-39
2023/08/02 04:01:48;;;;;;;4.28;2.78;;;16.30;99.90;;;;;;5066805;28;20116;-39
2023/08/02 04:04:14;;;;;;;5.05;3.25;;;16.30;99.90;;;;;;5073410;28;20025;-42
2023/08/02 04:06:39;;;;;;;6.40;2.50;;;16.40;99.90;;;;;;5073361;28;20025;-42
2023/08/02 04:09:05;;;;;;;10.05;2.85;;;16.40;99.90;;;;;;5071076;28;20032;-43
2023/08/02 04:11:31;;;;;;;5.22;2.28;;;16.50;99.90;;;;;;5066589;28;20035;-44
2023/08/02 04:13:57;;;;;;;11.27;3.13;;;16.50;99.90;;;;;;5070101;28;20048;-39
2023/08/02 04:16:22;;;;;;;3.80;2.22;;;16.50;99.90;;;;;;5072954;28;20044;-43
2023/08/02 04:18:48;;;;;;;6.13;2.75;;;16.50;99.90;;;;;;5067393;28;20074;-43
2023/08/02 04:21:18;;;;;;;7.53;2.00;;;16.50;99.90;;;;;;5072920;28;20539;-38
2023/08/02 04:23:44;;;;;;;6.97;2.38;;;16.50;99.90;;;;;;5068389;28;20028;-40
2023/08/02 04:26:10;;;;;;;4.65;2.22;;;16.40;99.90;;;;;;5066711;28;20028;-43
2023/08/02 04:28:36;;;;;;;8.27;2.45;;;16.50;99.90;;;;;;5070762;28;20525;-39
2023/08/02 04:31:02;;;;;;;7.25;2.25;;;16.50;99.90;;;;;;5072762;28;20063;-42
2023/08/02 04:33:28;;;;;;;6.88;2.05;;;16.50;99.90;;;;;;5065517;28;20052;-40
2023/08/02 04:35:57;;;;;;;3.75;1.80;;;16.60;99.90;;;;;;5069472;28;20029;-41
2023/08/02 04:38:23;;;;;;;8.07;2.92;;;16.60;99.90;;;;;;5066599;28;20028;-41
2023/08/02 04:40:49;;;;;;;7.95;2.67;;;16.60;99.90;;;;;;5072677;28;20524;-41
2023/08/02 04:43:14;;;;;;;10.32;2.90;;;16.70;99.90;;;;;;5071320;28;20032;-41
2023/08/02 04:45:40;;;;;;;3.85;1.88;;;16.60;99.90;;;;;;5072968;28;20392;-39
2023/08/02 04:48:06;;;;;;;5.38;1.85;;;16.60;99.90;;;;;;5068103;28;20070;-40
2023/08/02 04:50:34;;;;;;;4.97;1.85;;;16.70;99.90;;;;;;5072668;28;20020;-41
2023/08/02 04:53:01;;;;;;;6.70;2.17;;;16.70;99.90;;;;;;5069070;28;20118;-45
2023/08/02 04:55:27;;;;;;;7.82;2.28;;;16.70;99.90;;;;;;5072608;28;20021;-40
2023/08/02 04:57:53;;;;;;;9.98;2.67;;;16.80;99.90;;;;;;5072586;28;20130;-43
2023/08/02 05:00:19;;;;;;;11.50;1.92;;;16.70;99.90;;;;;;5072541;28;20509;-44
2023/08/02 05:02:45;;;;;;;3.83;2.17;;;16.70;99.90;;;;;;5054130;28;20029;-42
2023/08/02 05:05:11;;;;;;;6.07;2.15;;;16.70;99.90;;;;;;5036797;28;20083;-40
2023/08/02 05:07:37;;;;;;;6.07;1.77;;;16.70;99.90;;;;;;5042884;28;20350;-41
2023/08/02 05:10:04;;;;;;;8.75;2.83;;;16.70;99.90;;;;;;5056091;28;20029;-45
2023/08/02 05:12:38;;;;;;;8.20;2.35;;;16.80;99.90;;;;;;5055193;28;20035;-42
2023/08/02 05:15:04;;;;;;;2.50;1.98;;;16.80;99.90;;;;;;5056430;28;20021;-42
2023/08/02 05:17:30;;;;;;;8.25;2.60;;;16.80;99.90;;;;;;5056264;28;20021;-41
2023/08/02 05:19:56;;;;;;;4.45;1.95;;;16.80;99.90;;;;;;5056134;28;20019;-39
2023/08/02 05:22:22;;;;;;;8.40;2.42;;;16.90;99.90;;;;;;5056203;28;20536;-40
2023/08/02 05:24:50;;;;;;;4.88;1.90;;;16.90;99.90;;;;;;5056305;28;20025;-44
2023/08/02 05:27:15;;;;;;;4.53;2.05;;;16.90;99.90;;;;;;5056128;28;20036;-42
2023/08/02 05:29:41;;;;;;;4.55;2.00;;;16.90;99.90;;;;;;5037943;28;20363;-41
2023/08/02 05:32:07;;;;;;;5.47;2.38;;;16.90;99.90;;;;;;5035916;28;20017;-45
2023/08/02 05:34:32;;;;;;;6.40;2.45;;;16.80;99.90;;;;;;5036013;28;20025;-47
2023/08/02 05:36:58;;;;;;;4.25;1.63;;;16.80;99.90;;;;;;5035953;28;20470;-44
2023/08/02 05:39:23;;;;;;;3.70;2.38;;;16.80;99.90;;;;;;5035944;28;20029;-42
2023/08/02 05:41:49;;;;;;;4.18;2.28;;;16.80;99.90;;;;;;5035880;28;20080;-42
2023/08/02 05:44:15;;;;;;;4.22;2.03;;;16.70;99.90;;;;;;5036052;28;20466;-40
2023/08/02 05:46:41;;;;;;;5.65;2.70;;;16.70;99.90;;;;;;5053432;28;20056;-43
2023/08/02 05:49:06;;;;;;;10.18;2.45;;;16.70;99.90;;;;;;5055645;28;20070;-44
2023/08/02 05:51:35;;;;;;;2.78;1.92;;;16.70;99.90;;;;;;5055428;28;20027;-43
2023/08/02 05:54:00;;;;;;;7.65;2.25;;;16.60;99.90;;;;;;5069729;28;20584;-44
2023/08/02 05:56:26;;;;;;;5.80;2.20;;;16.60;99.90;;;;;;5075579;28;20099;-43
2023/08/02 05:58:52;;;;;;;2.78;2.28;;;16.50;99.90;;;;;;5073115;28;20099;-42
2023/08/02 06:01:17;;;;;;;11.55;2.50;;;16.50;99.90;;;;;;5071111;28;20059;-44
2023/08/02 06:03:43;;;;;;;3.85;2.13;;;16.50;99.90;;;;;;5068439;28;20531;-39
2023/08/02 06:06:09;;;;;;;4.43;2.58;;;16.50;99.90;;;;;;5075676;28;20064;-53
2023/08/02 06:08:34;;;;;;;5.50;2.60;;;16.40;99.90;;;;;;5075669;28;20366;-54
2023/08/02 06:11:01;;;;;;;4.45;2.25;;;16.40;99.90;;;;;;5075337;28;20028;-54
2023/08/02 06:13:27;;;;;;;5.07;2.72;;;16.30;99.90;;;;;;5072316;28;20074;-52
2023/08/02 06:15:53;;;;;;;3.75;2.22;;;16.20;99.90;;;;;;5057349;28;20016;-52
2023/08/02 06:18:18;;;;;;;7.07;2.85;;;16.20;99.90;;;;;;5065213;28;20032;-51
2023/08/02 06:20:44;;;;;;;3.83;2.28;;;16.10;99.90;;;;;;5073099;28;20396;-51
2023/08/02 06:23:10;;;;;;;2.67;2.42;;;16.10;99.90;;;;;;5073854;28;20029;-56
2023/08/02 06:25:35;;;;;;;8.48;2.28;;;16.10;99.90;;;;;;5053649;28;20094;-50
2023/08/02 06:28:01;;;;;;;3.75;1.85;;;16.10;99.90;;;;;;5061305;28;20381;-55
2023/08/02 06:30:27;;;;;;;7.43;2.30;;;16.10;99.90;;;;;;5073748;28;20043;-51
2023/08/02 06:32:52;;;;;;;3.00;2.22;;;16.10;99.90;;;;;;5067794;28;20033;-53
2023/08/02 06:35:18;;;;;;;3.67;2.15;;;16.00;99.90;;;;;;5059434;28;20370;-53
2023/08/02 06:37:44;;;;;;;5.00;2.42;;;16.10;99.90;;;;;;5045474;28;20032;-54
2023/08/02 06:40:10;;;;;;;3.85;2.47;;;16.10;99.90;;;;;;5054715;28;20086;-53
2023/08/02 06:42:36;;;;;;;5.47;2.10;;;16.10;99.90;;;;;;5037521;28;20104;-54
2023/08/02 06:45:01;;;;;;;2.78;2.33;;;16.10;99.90;;;;;;5034761;28;20030;-53
2023/08/02 06:47:27;;;;;;;4.32;1.92;;;16.10;99.90;;;;;;5035153;28;20033;-38
2023/08/02 06:49:53;;;;;;;1.83;1.70;;;16.10;99.90;;;;;;5034643;28;20029;-38
2023/08/02 06:52:18;;;;;;;5.55;2.00;;;16.10;99.90;;;;;;5034471;28;20021;-39
2023/08/02 06:54:44;;;;;;;2.20;2.00;;;16.10;99.90;;;;;;5035345;28;20053;-40
2023/08/02 06:57:09;;;;;;;3.25;2.55;;;16.10;99.90;;;;;;5034510;28;20040;-39
2023/08/02 06:59:35;;;;;;;4.70;1.80;;;16.10;99.90;;;;;;5034389;28;20556;-40
2023/08/02 07:02:06;;;;;;;7.13;1.92;;;16.20;99.90;;;;;;5034424;28;20039;-39
2023/08/02 07:04:31;;;;;;;1.98;1.77;;;16.10;99.90;;;;;;5034653;28;20057;-38
2023/08/02 07:06:57;;;;;;;2.58;2.03;;;16.20;99.90;;;;;;5040995;28;20482;-38
2023/08/02 07:09:23;;;;;;;3.55;1.50;;;16.20;99.90;;;;;;5053859;28;20099;-38
2023/08/02 07:11:48;;;;;;;2.97;1.48;;;16.20;99.90;;;;;;5035667;28;20112;-38
2023/08/02 07:14:14;;;;;;;1.50;1.40;;;16.20;99.90;;;;;;5053375;28;20565;-37
2023/08/02 07:16:40;;;;;;;2.70;1.80;;;16.20;99.90;;;;;;5053800;28;20021;-42
2023/08/02 07:19:06;;;;;;;4.50;1.55;;;16.20;99.90;;;;;;5053925;28;20115;-38
2023/08/02 07:21:31;;;;;;;3.78;1.80;;;16.20;99.90;;;;;;5052952;28;20013;-39
2023/08/02 07:23:57;;;;;;;3.08;1.92;;;16.20;99.90;;;;;;5053434;28;20035;-37
2023/08/02 07:26:23;;;;;;;5.45;2.25;;;16.20;99.90;;;;;;5053766;28;20047;-38
2023/08/02 07:28:48;;;;;;;3.72;1.60;;;16.20;99.90;;;;;;5052725;28;20452;-41
2023/08/02 07:31:14;;;;;;;2.38;1.40;;;16.20;99.90;;;;;;5054018;28;20025;-38
2023/08/02 07:33:40;;;;;;;3.10;2.10;;;16.20;99.90;;;;;;5053914;28;20025;-42
2023/08/02 07:36:16;;;;;;;1.83;1.65;;;16.30;99.90;;;;;;5053656;28;20025;-44
2023/08/02 07:38:43;;;;;;;1.35;1.25;;;16.20;99.90;;;;;;5053939;28;20021;-40
2023/08/02 07:41:09;;;;;;;1.42;1.30;;;16.20;99.90;;;;;;5053772;28;20110;-40
2023/08/02 07:43:35;;;;;;;2.35;1.40;;;16.20;99.90;;;;;;5052478;28;20501;-44
2023/08/02 07:46:01;;;;;;;1.85;1.25;;;16.30;99.90;;;;;;5053517;28;20025;-41
2023/08/02 07:48:28;;;;;;;3.35;1.48;;;16.30;99.90;;;;;;5053746;28;20057;-40
2023/08/02 07:50:54;;;;;;;2.47;1.05;;;16.40;99.90;;;;;;5053394;28;20575;-44
2023/08/02 07:53:19;;;;;;;1.80;1.20;;;16.40;99.90;;;;;;5053303;28;20385;-41
2023/08/02 07:55:45;;;;;;;1.13;1.02;;;16.40;99.90;;;;;;5070136;28;20036;-42
2023/08/02 07:58:10;;;;;;;4.80;1.13;;;16.40;99.90;;;;;;5066132;28;20035;-43
2023/08/02 08:00:36;;;;;;;2.60;1.40;;;16.40;99.90;;;;;;5066980;28;20028;-47
2023/08/02 08:03:03;;;;;;;1.05;0.95;;;16.50;99.90;;;;;;5057166;28;20036;-42
2023/08/02 08:05:30;;;;;;;1.10;1.00;;;16.50;99.90;;;;;;5045150;28;20032;-56
2023/08/02 08:07:56;;;;;;;3.70;0.97;;;16.50;99.90;;;;;;5046647;28;20024;-54
2023/08/02 08:10:21;;;;;;;2.42;1.30;;;16.40;99.90;;;;;;5054819;28;20017;-56
2023/08/02 08:12:47;;;;;;;0.70;0.70;;;16.50;99.90;;;;;;5053180;28;20112;-55
2023/08/02 08:15:13;;;;;;;0.93;0.88;;;16.50;99.90;;;;;;5052935;28;20028;-52
2023/08/02 08:17:38;;;;;;;1.80;0.80;;;16.50;99.90;;;;;;5051855;28;20025;-55
2023/08/02 08:20:05;;;;;;;0.60;0.60;;;16.50;99.90;;;;;;5052956;28;20025;-53
2023/08/02 08:22:31;;;;;;;0.68;0.60;;;16.60;99.90;;;;;;5055245;28;20021;-53
2023/08/02 08:24:57;;;;;;;0.40;0.40;;;16.60;99.90;;;;;;5051647;28;20025;-55
2023/08/02 08:27:23;;;;;;;0.75;0.60;;;16.70;99.90;;;;;;5049543;28;20021;-56
2023/08/02 08:29:48;;;;;;;1.10;0.70;;;16.70;99.90;;;;;;5040223;28;20022;-60
2023/08/02 08:32:14;;;;;;;0.63;0.52;;;16.70;99.90;;;;;;5033073;28;20028;-55
2023/08/02 08:34:42;;;;;;;0.80;0.75;;;16.60;99.90;;;;;;5033487;28;20387;-55
2023/08/02 08:37:07;;;;;;;0.55;0.50;;;16.60;99.90;;;;;;5052266;28;20531;-55
2023/08/02 08:39:35;;;;;;;3.30;0.88;;;16.60;99.90;;;;;;5052372;28;20033;-55
2023/08/02 08:42:08;;;;;;;0.50;0.50;;;16.70;99.90;;;;;;5052813;28;20028;-54
2023/08/02 08:44:38;;;;;;;0.65;0.55;;;16.80;99.90;;;;;;5052895;28;20366;-52
2023/08/02 08:47:07;;;;;;;0.57;0.57;;;16.80;99.90;;;;;;5052854;28;20021;-60
2023/08/02 08:49:33;;;;;;;0.70;0.50;;;16.90;99.90;;;;;;5052605;28;20029;-55
2023/08/02 08:52:04;;;;;;;0.60;0.60;;;16.90;99.90;;;;;;5048428;28;20048;-54
2023/08/02 08:54:32;;;;;;;2.65;0.60;;;17.00;99.90;;;;;;5032594;28;20469;-53
2023/08/02 08:56:59;;;;;;;0.55;0.43;;;17.10;99.90;;;;;;5032588;28;20022;-55
2023/08/02 08:59:25;;;;;;;0.70;0.70;;;17.10;99.90;;;;;;5032846;28;20029;-53
2023/08/02 09:01:52;;;;;;;0.50;0.50;;;17.20;99.90;;;;;;5032541;28;20030;-54
2023/08/02 09:04:18;;;;;;;2.40;1.02;;;17.20;99.90;;;;;;5031262;28;20061;-54
2023/08/02 09:06:44;;;;;;;0.93;0.75;;;17.30;99.90;;;;;;5032533;28;20454;-55
2023/08/02 09:09:14;;;;;;;1.30;1.02;;;17.40;99.90;;;;;;5037431;28;20056;-54
2023/08/02 09:11:41;;;;;;;1.10;1.00;;;17.40;99.90;;;;;;5052280;28;20104;-55
2023/08/02 09:14:12;;;;;;;1.02;0.98;;;17.60;99.90;;;;;;5048984;28;20090;-54
2023/08/02 09:16:57;;;;;;;1.55;1.27;;;17.80;99.90;;;;;;5032690;28;20021;-55
2023/08/02 09:19:29;;;;;;;1.52;1.42;;;17.90;99.90;;;;;;5032438;28;20359;-41
2023/08/02 09:22:08;;;;;;;1.80;1.35;;;17.90;99.90;;;;;;5039954;28;20059;-46
2023/08/02 09:24:36;;;;;;;1.23;1.13;;;18.00;99.90;;;;;;5052167;28;20072;-43
2023/08/02 09:27:12;;;;;;;2.03;1.67;;;17.90;99.90;;;;;;5051510;28;20021;-41
2023/08/02 09:29:48;;;;;;;3.75;1.50;;;18.00;99.90;;;;;;5052244;28;20415;-39
2023/08/02 09:32:15;;;;;;;6.90;1.80;;;18.10;99.90;;;;;;5052357;28;20036;-44
2023/08/02 09:34:49;;;;;;;1.53;1.40;;;18.20;99.90;;;;;;5052109;28;20509;-44
2023/08/02 09:37:17;;;;;;;1.40;1.30;;;18.20;99.90;;;;;;5052325;28;20045;-40
2023/08/02 09:39:49;;;;;;;2.53;1.25;;;18.20;99.90;;;;;;5052352;28;20014;-42
2023/08/02 09:42:17;;;;;;;2.33;1.63;;;18.30;99.90;;;;;;5050645;28;20052;-55
2023/08/02 09:44:50;;;;;;;3.35;1.58;;;18.40;99.90;;;;;;5051382;28;20021;-53
2023/08/02 09:47:16;;;;;;;1.38;1.27;;;18.40;99.90;;;;;;5053351;28;20032;-55
2023/08/02 09:49:41;;;;;;;2.42;1.23;;;18.40;99.90;;;;;;5055707;28;20028;-54
2023/08/02 09:52:09;;;;;;;3.40;1.15;;;18.40;99.90;;;;;;5055528;28;20371;-54
2023/08/02 09:54:34;;;;;;;1.40;1.30;;;18.40;99.90;;;;;;5055386;28;20120;-54
2023/08/02 09:57:02;;;;;;;1.45;1.35;;;18.40;99.90;;;;;;5055564;28;20033;-55
2023/08/02 09:59:29;;;;;;;2.50;2.10;;;18.50;99.90;;;;;;5055197;28;20021;-54
2023/08/02 10:01:56;;;;;;;2.63;1.27;;;18.60;99.90;;;;;;5055132;28;20025;-54
2023/08/02 10:04:25;;;;;;;1.92;1.75;;;18.70;99.90;;;;;;5038440;28;20038;-54
2023/08/02 10:06:58;;;;;;;1.70;1.60;;;19.00;99.90;;;;;;5050145;28;20048;-54
2023/08/02 10:09:28;;;;;;;1.80;1.70;;;19.20;99.90;;;;;;5036194;28;20032;-54
2023/08/02 10:12:00;;;;;;;3.35;1.50;;;19.50;99.90;;;;;;5034997;28;20476;-54
2023/08/02 10:14:26;;;;;;;2.03;1.92;;;19.60;99.90;;;;;;5041378;28;20025;-54
2023/08/02 10:16:52;;;;;;;2.47;1.90;;;19.60;99.90;;;;;;5046825;28;20107;-52
2023/08/02 10:19:19;;;;;;;3.05;1.70;;;19.70;99.90;;;;;;5049300;28;20025;-54
2023/08/02 10:21:46;;;;;;;2.00;1.90;;;19.90;99.90;;;;;;5043747;28;20458;-53
2023/08/02 10:24:13;;;;;;;7.10;2.10;;;20.30;99.90;;;;;;5044785;28;20033;-51
2023/08/02 10:26:39;;;;;;;2.78;1.40;;;20.60;99.90;;;;;;5050900;28;20487;-53
2023/08/02 10:29:07;;;;;;;1.63;1.40;;;20.90;99.90;;;;;;5042093;28;20032;-54
2023/08/02 10:31:32;;;;;;;3.95;1.90;;;21.00;99.90;;;;;;5040819;28;20284;-51
2023/08/02 10:33:58;;;;;;;1.13;1.13;;;20.90;99.90;;;;;;5053906;28;20029;-52
2023/08/02 10:36:24;;;;;;;1.50;1.40;;;20.80;99.90;;;;;;5045808;28;20159;-51
2023/08/02 10:38:53;;;;;;;1.67;1.10;;;21.00;99.90;;;;;;5035146;28;20029;-49
2023/08/02 10:41:22;;;;;;;1.17;0.98;;;21.10;99.90;;;;;;5034860;28;20017;-50
2023/08/02 10:43:54;;;;;;;2.22;0.95;;;21.10;99.90;;;;;;5045066;28;20424;-52
2023/08/02 10:46:28;;;;;;;1.45;0.93;;;20.90;99.90;;;;;;5054779;28;20025;-53
2023/08/02 10:49:13;;;;;;;1.92;0.88;;;20.80;99.90;;;;;;5054596;28;20029;-52
2023/08/02 10:51:39;;;;;;;5.07;1.05;;;20.80;99.90;;;;;;5044755;28;20061;-51
2023/08/02 10:54:13;;;;;;;1.30;1.00;;;20.60;99.90;;;;;;5034614;28;20564;-51
2023/08/02 10:57:09;;;;;;;1.75;0.85;;;20.60;99.90;;;;;;5049295;28;20056;-49
2023/08/02 10:59:34;;;;;;;4.18;1.20;;;20.70;99.90;;;;;;5041112;28;20037;-52
2023/08/02 11:02:07;;;;;;;2.70;1.00;;;20.90;99.90;;;;;;5051589;28;20040;-52
2023/08/02 11:04:34;;;;;;;5.60;0.90;;;21.10;99.90;;;;;;5041737;28;20021;-53
2023/08/02 11:07:30;;;;;;;6.43;1.13;;;21.30;99.90;;;;;;5054545;28;20095;-53
2023/08/02 11:09:56;;;;;;;4.43;1.27;;;21.50;99.90;;;;;;5053238;28;20041;-50
2023/08/02 11:12:22;;;;;;;5.80;1.13;;;21.70;99.90;;;;;;5054018;28;20100;-53
2023/08/02 11:14:52;;;;;;;6.70;1.52;;;21.80;99.90;;;;;;5052685;28;20021;-53
2023/08/02 11:17:19;;;;;;;7.57;1.02;;;21.80;99.90;;;;;;5054077;28;20533;-52
2023/08/02 11:19:51;;;;;;;6.53;1.35;;;21.90;99.90;;;;;;5052803;28;20025;-40
2023/08/02 11:22:18;;;;;;;4.82;1.27;;;22.00;99.90;;;;;;5032719;28;20060;-38
2023/08/02 11:24:46;;;;;;;3.17;1.13;;;21.90;99.90;;;;;;5035471;28;20037;-35
2023/08/02 11:27:23;;;;;;;7.82;1.50;;;21.80;99.90;;;;;;5053900;28;20469;-36
2023/08/02 11:30:02;;;;;;;3.67;1.48;;;21.70;99.90;;;;;;5053861;28;20064;-35
2023/08/02 11:32:30;;;;;;;12.43;1.73;;;21.80;99.90;;;;;;5053707;28;20032;-52
2023/08/02 11:34:55;;;;;;;4.15;1.60;;;22.10;99.90;;;;;;5053710;28;20501;-39
2023/08/02 11:37:22;;;;;;;3.03;1.25;;;22.00;99.90;;;;;;5053559;28;20025;-41
2023/08/02 11:39:55;;;;;;;2.88;0.80;;;21.90;99.90;;;;;;5053847;28;20028;-36
2023/08/02 11:42:22;;;;;;;9.25;0.80;;;21.80;99.90;;;;;;5046356;28;20052;-37
2023/08/02 11:44:48;;;;;;;3.45;0.80;;;21.90;99.90;;;;;;5033666;28;20108;-37
2023/08/02 11:47:13;;;;;;;4.28;0.90;;;22.00;99.90;;;;;;5049029;28;20067;-40
2023/08/02 11:49:49;;;;;;;3.13;1.05;;;22.30;99.90;;;;;;5053393;28;20558;-39
2023/08/02 11:52:27;;;;;;;1.70;0.57;;;22.40;99.90;;;;;;5053324;28;20033;-39
2023/08/02 11:54:53;;;;;;;1.80;0.57;;;22.40;99.90;;;;;;5052789;28;20073;-39
2023/08/02 11:57:21;;;;;;;8.77;0.70;;;22.10;99.90;;;;;;5053470;28;20052;-37
2023/08/02 11:59:48;;;;;;;4.25;0.75;;;21.90;99.90;;;;;;5052218;28;20017;-37
2023/08/02 12:02:29;;;;;;;1.88;0.68;;;22.10;99.90;;;;;;5053453;28;20032;-38
2023/08/02 12:04:55;;;;;;;3.10;0.63;;;22.40;99.90;;;;;;5053110;28;20108;-40
2023/08/02 12:07:28;;;;;;;2.97;0.90;;;22.60;99.90;;;;;;5042972;28;20104;-42
2023/08/02 12:09:54;;;;;;;2.83;0.82;;;22.80;99.90;;;;;;5047114;28;20127;-35
2023/08/02 12:12:20;;;;;;;1.52;0.52;;;22.80;99.90;;;;;;5042720;28;20025;-36
2023/08/02 12:14:46;;;;;;;2.92;0.75;;;22.80;99.90;;;;;;5058975;28;20074;-38
2023/08/02 12:17:19;;;;;;;1.92;0.65;;;22.80;99.90;;;;;;5051894;28;20021;-37
2023/08/02 12:19:44;;;;;;;2.47;0.43;;;23.00;99.90;;;;;;5052689;28;20120;-36
2023/08/02 12:22:10;;;;;;;1.80;0.77;;;23.10;99.90;;;;;;5053182;28;20096;-37
2023/08/02 12:24:36;;;;;;;3.90;0.65;;;23.10;99.90;;;;;;5052738;28;20021;-42
2023/08/02 12:27:20;;;;;;;3.55;0.65;;;23.20;99.90;;;;;;5053080;28;20021;-37
2023/08/02 12:29:46;;;;;;;0.60;0.60;;;23.10;99.90;;;;;;5052975;28;20013;-41
2023/08/02 12:32:25;;;;;;;3.20;0.60;;;22.90;99.90;;;;;;5052650;28;20027;-40
2023/08/02 12:34:50;;;;;;;2.05;0.88;;;22.60;99.90;;;;;;5033506;28;20256;-38
2023/08/02 12:37:17;;;;;;;2.10;0.70;;;22.50;99.90;;;;;;5032713;28;20033;-40
2023/08/02 12:39:42;;;;;;;3.30;0.40;;;22.30;99.90;;;;;;5032696;28;20017;-40
2023/08/02 12:42:08;;;;;;;6.28;0.50;;;22.20;99.90;;;;;;5031298;28;20037;-42
2023/08/02 12:44:34;;;;;;;3.85;0.98;;;22.40;99.90;;;;;;5032753;28;20055;-40